sensor_id;sensor_type;location;lat;lon;timestamp;P1;durP1;ratioP1;P2;durP2;ratioP2
31091;SDS011;67728;53.122;12.776;2023-07-20T11:20:14;6.72;;;5.70;;
31091;SDS011;67728;53.122;12.776;2023-07-20T11:21:47;34.50;;;23.45;;
31091;SDS011;67728;53.122;12.776;2023-07-20T11:23:20;1.52;;;1.45;;
31091;SDS011;67728;53.122;12.776;2023-07-20T11:24:54;4.95;;;4.72;;
31091;SDS011;67728;53.122;12.776;2023-07-20T17:41:45;84.57;;;37.08;;
31091;SDS011;67728;53.122;12.776;2023-07-20T17:43:16;322.83;;;97.60;;
31091;SDS011;67728;53.122;12.776;2023-07-20T17:44:47;315.30;;;96.17;;
31091;SDS011;67728;53.122;12.776;2023-07-20T17:46:19;318.97;;;102.20;;
31091;SDS011;67728;53.122;12.776;2023-07-20T17:47:50;314.70;;;94.10;;
31091;SDS011;67728;53.122;12.776;2023-07-20T17:49:21;308.90;;;84.73;;
31091;SDS011;67728;53.122;12.776;2023-07-20T17:50:55;311.60;;;90.30;;
31091;SDS011;67728;53.122;12.776;2023-07-20T17:52:25;308.03;;;87.53;;
31091;SDS011;67728;53.122;12.776;2023-07-20T17:53:58;315.00;;;94.63;;
31091;SDS011;67728;53.122;12.776;2023-07-20T17:55:29;322.87;;;110.80;;
31091;SDS011;67728;53.122;12.776;2023-07-20T17:57:00;311.23;;;95.37;;
31091;SDS011;67728;53.122;12.776;2023-07-20T17:58:32;312.00;;;93.63;;
31091;SDS011;67728;53.122;12.776;2023-07-20T18:00:04;314.97;;;97.90;;
31091;SDS011;67728;53.122;12.776;2023-07-20T18:01:39;324.83;;;111.57;;
31091;SDS011;67728;53.122;12.776;2023-07-20T18:03:11;314.67;;;97.07;;
31091;SDS011;67728;53.122;12.776;2023-07-20T18:04:42;317.97;;;104.53;;
31091;SDS011;67728;53.122;12.776;2023-07-20T18:06:15;327.77;;;126.87;;
31091;SDS011;67728;53.122;12.776;2023-07-20T18:07:46;315.63;;;100.63;;
31091;SDS011;67728;53.122;12.776;2023-07-20T18:09:17;340.97;;;123.87;;
31091;SDS011;67728;53.122;12.776;2023-07-20T18:10:48;325.30;;;113.17;;
31091;SDS011;67728;53.122;12.776;2023-07-20T18:12:19;303.50;;;96.63;;
31091;SDS011;67728;53.122;12.776;2023-07-20T18:13:50;338.17;;;118.87;;
31091;SDS011;67728;53.122;12.776;2023-07-20T18:15:22;316.60;;;94.33;;
31091;SDS011;67728;53.122;12.776;2023-07-20T18:16:52;334.23;;;108.67;;
31091;SDS011;67728;53.122;12.776;2023-07-20T18:18:24;312.53;;;94.17;;
31091;SDS011;67728;53.122;12.776;2023-07-20T18:19:55;326.17;;;104.40;;
31091;SDS011;67728;53.122;12.776;2023-07-20T18:21:28;361.93;;;129.80;;
31091;SDS011;67728;53.122;12.776;2023-07-20T18:22:59;312.67;;;97.57;;
31091;SDS011;67728;53.122;12.776;2023-07-20T18:24:33;309.50;;;102.33;;
31091;SDS011;67728;53.122;12.776;2023-07-20T18:26:05;303.53;;;94.60;;
31091;SDS011;67728;53.122;12.776;2023-07-20T18:27:35;336.97;;;135.90;;
31091;SDS011;67728;53.122;12.776;2023-07-20T18:29:07;316.03;;;112.30;;
31091;SDS011;67728;53.122;12.776;2023-07-20T18:30:38;311.47;;;106.03;;
31091;SDS011;67728;53.122;12.776;2023-07-20T18:32:10;305.93;;;101.43;;
31091;SDS011;67728;53.122;12.776;2023-07-20T18:33:41;304.70;;;95.50;;
31091;SDS011;67728;53.122;12.776;2023-07-20T18:35:12;305.50;;;97.93;;
31091;SDS011;67728;53.122;12.776;2023-07-20T18:36:44;317.97;;;110.73;;
31091;SDS011;67728;53.122;12.776;2023-07-20T18:38:17;315.33;;;102.27;;
31091;SDS011;67728;53.122;12.776;2023-07-20T18:39:48;303.00;;;92.50;;
31091;SDS011;67728;53.122;12.776;2023-07-20T18:41:19;300.90;;;86.53;;
31091;SDS011;67728;53.122;12.776;2023-07-20T18:42:52;305.50;;;95.37;;
31091;SDS011;67728;53.122;12.776;2023-07-20T18:44:23;304.73;;;96.50;;
31091;SDS011;67728;53.122;12.776;2023-07-20T18:45:54;302.37;;;90.90;;
31091;SDS011;67728;53.122;12.776;2023-07-20T18:47:25;302.47;;;88.80;;
31091;SDS011;67728;53.122;12.776;2023-07-20T18:48:57;300.90;;;85.07;;
31091;SDS011;67728;53.122;12.776;2023-07-20T18:50:28;303.67;;;88.63;;
31091;SDS011;67728;53.122;12.776;2023-07-20T18:52:04;308.80;;;101.67;;
31091;SDS011;67728;53.122;12.776;2023-07-20T18:53:35;305.10;;;87.67;;
31091;SDS011;67728;53.122;12.776;2023-07-20T18:55:08;304.17;;;82.60;;
31091;SDS011;67728;53.122;12.776;2023-07-20T18:56:38;305.53;;;93.33;;
31091;SDS011;67728;53.122;12.776;2023-07-20T18:58:10;314.97;;;104.37;;
31091;SDS011;67728;53.122;12.776;2023-07-20T18:59:41;299.67;;;81.53;;
31091;SDS011;67728;53.122;12.776;2023-07-20T19:01:13;303.73;;;84.70;;
31091;SDS011;67728;53.122;12.776;2023-07-20T19:02:46;300.20;;;82.27;;
31091;SDS011;67728;53.122;12.776;2023-07-20T19:04:17;300.60;;;83.80;;
31091;SDS011;67728;53.122;12.776;2023-07-20T19:05:49;300.50;;;86.83;;
31091;SDS011;67728;53.122;12.776;2023-07-20T19:07:21;297.43;;;81.60;;
31091;SDS011;67728;53.122;12.776;2023-07-20T19:08:53;294.93;;;77.93;;
31091;SDS011;67728;53.122;12.776;2023-07-20T19:10:23;296.07;;;76.43;;
31091;SDS011;67728;53.122;12.776;2023-07-20T19:11:57;299.13;;;86.30;;
31091;SDS011;67728;53.122;12.776;2023-07-20T19:13:27;294.93;;;79.93;;
31091;SDS011;67728;53.122;12.776;2023-07-20T19:14:59;289.73;;;74.90;;
31091;SDS011;67728;53.122;12.776;2023-07-20T19:16:31;291.77;;;75.57;;
31091;SDS011;67728;53.122;12.776;2023-07-20T19:18:01;319.40;;;87.67;;
31091;SDS011;67728;53.122;12.776;2023-07-20T19:19:33;311.13;;;82.87;;
31091;SDS011;67728;53.122;12.776;2023-07-20T19:21:04;312.27;;;85.00;;
31091;SDS011;67728;53.122;12.776;2023-07-20T19:22:37;316.23;;;82.40;;
31091;SDS011;67728;53.122;12.776;2023-07-20T19:24:07;303.73;;;82.93;;
31091;SDS011;67728;53.122;12.776;2023-07-20T19:25:39;308.40;;;101.50;;
31091;SDS011;67728;53.122;12.776;2023-07-20T19:27:10;294.20;;;75.23;;
31091;SDS011;67728;53.122;12.776;2023-07-20T19:28:42;291.30;;;73.77;;
31091;SDS011;67728;53.122;12.776;2023-07-20T19:30:13;292.80;;;78.93;;
31091;SDS011;67728;53.122;12.776;2023-07-20T19:31:45;289.60;;;73.20;;
31091;SDS011;67728;53.122;12.776;2023-07-20T19:33:16;289.40;;;72.80;;
31091;SDS011;67728;53.122;12.776;2023-07-20T19:34:47;303.37;;;96.40;;
31091;SDS011;67728;53.122;12.776;2023-07-20T19:36:18;297.33;;;84.97;;
31091;SDS011;67728;53.122;12.776;2023-07-20T19:37:51;290.87;;;73.53;;
31091;SDS011;67728;53.122;12.776;2023-07-20T19:39:22;289.40;;;72.07;;
31091;SDS011;67728;53.122;12.776;2023-07-20T19:40:54;293.63;;;74.23;;
31091;SDS011;67728;53.122;12.776;2023-07-20T19:42:25;294.33;;;75.00;;
31091;SDS011;67728;53.122;12.776;2023-07-20T19:43:56;309.53;;;103.50;;
31091;SDS011;67728;53.122;12.776;2023-07-20T19:45:27;295.43;;;81.97;;
31091;SDS011;67728;53.122;12.776;2023-07-20T19:46:58;292.83;;;75.43;;
31091;SDS011;67728;53.122;12.776;2023-07-20T19:48:29;288.83;;;70.23;;
31091;SDS011;67728;53.122;12.776;2023-07-20T19:50:01;289.97;;;70.27;;
31091;SDS011;67728;53.122;12.776;2023-07-20T19:51:35;297.53;;;80.27;;
31091;SDS011;67728;53.122;12.776;2023-07-20T19:53:09;292.87;;;73.57;;
31091;SDS011;67728;53.122;12.776;2023-07-20T19:54:40;292.97;;;79.87;;
31091;SDS011;67728;53.122;12.776;2023-07-20T19:56:11;288.60;;;73.83;;
31091;SDS011;67728;53.122;12.776;2023-07-20T19:57:42;283.87;;;67.97;;
31091;SDS011;67728;53.122;12.776;2023-07-20T19:59:13;286.20;;;68.00;;
31091;SDS011;67728;53.122;12.776;2023-07-20T20:00:44;287.33;;;68.53;;
31091;SDS011;67728;53.122;12.776;2023-07-20T20:02:16;285.43;;;67.77;;
31091;SDS011;67728;53.122;12.776;2023-07-20T20:03:46;286.40;;;67.73;;
31091;SDS011;67728;53.122;12.776;2023-07-20T20:05:18;289.43;;;69.53;;
31091;SDS011;67728;53.122;12.776;2023-07-20T20:06:50;290.67;;;70.57;;
31091;SDS011;67728;53.122;12.776;2023-07-20T20:08:23;291.33;;;70.10;;
31091;SDS011;67728;53.122;12.776;2023-07-20T20:09:55;290.13;;;70.00;;
31091;SDS011;67728;53.122;12.776;2023-07-20T20:11:27;289.13;;;69.83;;
31091;SDS011;67728;53.122;12.776;2023-07-20T20:12:59;288.37;;;69.07;;
31091;SDS011;67728;53.122;12.776;2023-07-20T20:14:30;288.10;;;67.97;;
31091;SDS011;67728;53.122;12.776;2023-07-20T20:16:03;289.40;;;68.07;;
31091;SDS011;67728;53.122;12.776;2023-07-20T20:17:34;290.87;;;68.47;;
31091;SDS011;67728;53.122;12.776;2023-07-20T20:19:06;294.47;;;69.10;;
31091;SDS011;67728;53.122;12.776;2023-07-20T20:20:43;298.00;;;69.10;;
31091;SDS011;67728;53.122;12.776;2023-07-20T20:22:15;306.30;;;68.63;;
31091;SDS011;67728;53.122;12.776;2023-07-20T20:23:48;5.07;;;2.20;;
31091;SDS011;67728;53.122;12.776;2023-07-20T20:25:19;4.90;;;4.17;;
31091;SDS011;67728;53.122;12.776;2023-07-20T20:26:50;4.00;;;2.60;;
31091;SDS011;67728;53.122;12.776;2023-07-20T20:28:22;4.07;;;1.93;;
31091;SDS011;67728;53.122;12.776;2023-07-20T20:29:54;3.77;;;1.90;;
31091;SDS011;67728;53.122;12.776;2023-07-20T20:31:26;3.33;;;1.87;;
31091;SDS011;67728;53.122;12.776;2023-07-20T20:32:58;3.77;;;1.90;;
31091;SDS011;67728;53.122;12.776;2023-07-20T20:34:28;4.93;;;2.37;;
31091;SDS011;67728;53.122;12.776;2023-07-20T20:36:00;3.90;;;1.97;;
31091;SDS011;67728;53.122;12.776;2023-07-20T20:37:32;3.50;;;2.07;;
31091;SDS011;67728;53.122;12.776;2023-07-20T20:39:04;3.73;;;2.00;;
31091;SDS011;67728;53.122;12.776;2023-07-20T20:40:37;3.50;;;1.90;;
31091;SDS011;67728;53.122;12.776;2023-07-20T20:42:15;3.43;;;1.83;;
31091;SDS011;67728;53.122;12.776;2023-07-20T20:43:46;4.80;;;2.13;;
31091;SDS011;67728;53.122;12.776;2023-07-20T20:45:18;4.03;;;2.27;;
31091;SDS011;67728;53.122;12.776;2023-07-20T20:46:50;5.10;;;2.47;;
31091;SDS011;67728;53.122;12.776;2023-07-20T20:48:20;213.30;;;44.00;;
31091;SDS011;67728;53.122;12.776;2023-07-20T20:49:52;300.53;;;61.83;;
31091;SDS011;67728;53.122;12.776;2023-07-20T20:51:23;3.37;;;1.87;;
31091;SDS011;67728;53.122;12.776;2023-07-20T20:52:56;3.83;;;2.00;;
31091;SDS011;67728;53.122;12.776;2023-07-20T20:54:28;3.47;;;1.90;;
31091;SDS011;67728;53.122;12.776;2023-07-20T20:55:59;3.70;;;1.90;;
31091;SDS011;67728;53.122;12.776;2023-07-20T20:57:30;3.50;;;1.83;;
31091;SDS011;67728;53.122;12.776;2023-07-20T20:59:03;223.00;;;46.53;;
31091;SDS011;67728;53.122;12.776;2023-07-20T21:00:34;304.70;;;62.00;;
31091;SDS011;67728;53.122;12.776;2023-07-20T21:02:06;307.90;;;64.37;;
31091;SDS011;67728;53.122;12.776;2023-07-20T21:03:36;305.73;;;63.20;;
31091;SDS011;67728;53.122;12.776;2023-07-20T21:05:08;305.83;;;63.23;;
31091;SDS011;67728;53.122;12.776;2023-07-20T21:06:39;309.10;;;62.70;;
31091;SDS011;67728;53.122;12.776;2023-07-20T21:08:11;308.83;;;63.70;;
31091;SDS011;67728;53.122;12.776;2023-07-20T21:09:43;308.93;;;63.10;;
31091;SDS011;67728;53.122;12.776;2023-07-20T21:11:15;310.23;;;63.53;;
31091;SDS011;67728;53.122;12.776;2023-07-20T21:12:46;225.03;;;46.70;;
31091;SDS011;67728;53.122;12.776;2023-07-20T21:14:17;3.60;;;2.30;;
31091;SDS011;67728;53.122;12.776;2023-07-20T21:15:50;3.70;;;2.13;;
31091;SDS011;67728;53.122;12.776;2023-07-20T21:17:22;3.50;;;1.90;;
31091;SDS011;67728;53.122;12.776;2023-07-20T21:18:53;3.77;;;1.87;;
31091;SDS011;67728;53.122;12.776;2023-07-20T21:20:24;4.73;;;2.50;;
31091;SDS011;67728;53.122;12.776;2023-07-20T21:21:56;140.53;;;30.80;;
31091;SDS011;67728;53.122;12.776;2023-07-20T21:23:28;292.53;;;62.37;;
31091;SDS011;67728;53.122;12.776;2023-07-20T21:25:00;292.70;;;62.93;;
31091;SDS011;67728;53.122;12.776;2023-07-20T21:26:31;291.03;;;63.47;;
31091;SDS011;67728;53.122;12.776;2023-07-20T21:28:02;289.20;;;60.77;;
31091;SDS011;67728;53.122;12.776;2023-07-20T21:29:34;294.50;;;64.73;;
31091;SDS011;67728;53.122;12.776;2023-07-20T21:31:05;295.03;;;64.77;;
31091;SDS011;67728;53.122;12.776;2023-07-20T21:32:38;296.03;;;63.07;;
31091;SDS011;67728;53.122;12.776;2023-07-20T21:34:08;296.03;;;61.80;;
31091;SDS011;67728;53.122;12.776;2023-07-20T21:35:40;293.73;;;62.30;;
31091;SDS011;67728;53.122;12.776;2023-07-20T21:37:11;290.13;;;58.67;;
31091;SDS011;67728;53.122;12.776;2023-07-20T21:38:43;289.93;;;58.87;;
31091;SDS011;67728;53.122;12.776;2023-07-20T21:40:16;294.50;;;60.23;;
31091;SDS011;67728;53.122;12.776;2023-07-20T21:41:47;294.77;;;60.33;;
31091;SDS011;67728;53.122;12.776;2023-07-20T21:43:18;296.83;;;69.77;;
31091;SDS011;67728;53.122;12.776;2023-07-20T21:44:49;292.97;;;62.50;;
31091;SDS011;67728;53.122;12.776;2023-07-20T21:46:21;290.63;;;61.37;;
31091;SDS011;67728;53.122;12.776;2023-07-20T21:47:52;295.20;;;63.47;;
31091;SDS011;67728;53.122;12.776;2023-07-20T21:49:23;303.70;;;75.27;;
31091;SDS011;67728;53.122;12.776;2023-07-20T21:50:55;304.47;;;64.53;;
31091;SDS011;67728;53.122;12.776;2023-07-20T21:52:26;295.03;;;64.43;;
31091;SDS011;67728;53.122;12.776;2023-07-20T21:53:58;297.03;;;64.17;;
31091;SDS011;67728;53.122;12.776;2023-07-20T21:55:31;291.67;;;61.33;;
31091;SDS011;67728;53.122;12.776;2023-07-20T21:57:02;293.47;;;63.77;;
31091;SDS011;67728;53.122;12.776;2023-07-20T21:58:34;295.60;;;68.23;;
31091;SDS011;67728;53.122;12.776;2023-07-20T22:00:05;293.27;;;63.27;;
31091;SDS011;67728;53.122;12.776;2023-07-20T22:01:39;289.03;;;60.00;;
31091;SDS011;67728;53.122;12.776;2023-07-20T22:03:09;285.00;;;58.23;;
31091;SDS011;67728;53.122;12.776;2023-07-20T22:04:41;311.70;;;98.37;;
31091;SDS011;67728;53.122;12.776;2023-07-20T22:06:12;295.47;;;67.47;;
31091;SDS011;67728;53.122;12.776;2023-07-20T22:07:44;293.50;;;68.37;;
31091;SDS011;67728;53.122;12.776;2023-07-20T22:09:15;287.83;;;63.40;;
31091;SDS011;67728;53.122;12.776;2023-07-20T22:10:48;289.80;;;62.90;;
31091;SDS011;67728;53.122;12.776;2023-07-20T22:12:21;292.47;;;60.77;;
31091;SDS011;67728;53.122;12.776;2023-07-20T22:13:53;287.53;;;59.00;;
31091;SDS011;67728;53.122;12.776;2023-07-20T22:15:23;288.03;;;59.90;;
31091;SDS011;67728;53.122;12.776;2023-07-20T22:16:56;319.50;;;111.33;;
31091;SDS011;67728;53.122;12.776;2023-07-20T22:18:26;285.17;;;59.17;;
31091;SDS011;67728;53.122;12.776;2023-07-20T22:19:58;285.50;;;59.70;;
31091;SDS011;67728;53.122;12.776;2023-07-20T22:21:29;295.10;;;69.70;;
31091;SDS011;67728;53.122;12.776;2023-07-20T22:23:00;291.40;;;68.57;;
31091;SDS011;67728;53.122;12.776;2023-07-20T22:24:31;288.80;;;62.80;;
31091;SDS011;67728;53.122;12.776;2023-07-20T22:26:04;286.53;;;58.87;;
31091;SDS011;67728;53.122;12.776;2023-07-20T22:27:35;301.63;;;83.97;;
31091;SDS011;67728;53.122;12.776;2023-07-20T22:29:07;305.27;;;82.80;;
31091;SDS011;67728;53.122;12.776;2023-07-20T22:30:37;296.07;;;74.43;;
31091;SDS011;67728;53.122;12.776;2023-07-20T22:32:10;283.43;;;58.10;;
31091;SDS011;67728;53.122;12.776;2023-07-20T22:33:41;293.20;;;65.80;;
31091;SDS011;67728;53.122;12.776;2023-07-20T22:35:12;294.00;;;67.13;;
31091;SDS011;67728;53.122;12.776;2023-07-20T22:36:44;285.70;;;58.50;;
31091;SDS011;67728;53.122;12.776;2023-07-20T22:38:18;284.00;;;58.00;;
31091;SDS011;67728;53.122;12.776;2023-07-20T22:39:49;286.70;;;58.67;;
31091;SDS011;67728;53.122;12.776;2023-07-20T22:41:22;284.83;;;58.80;;
31091;SDS011;67728;53.122;12.776;2023-07-20T22:42:53;291.40;;;61.00;;
31091;SDS011;67728;53.122;12.776;2023-07-20T22:44:24;3.70;;;2.70;;
31091;SDS011;67728;53.122;12.776;2023-07-20T22:45:56;5.10;;;3.10;;
31091;SDS011;67728;53.122;12.776;2023-07-20T22:47:27;5.87;;;4.80;;
31091;SDS011;67728;53.122;12.776;2023-07-20T22:48:58;6.10;;;4.57;;
31091;SDS011;67728;53.122;12.776;2023-07-20T22:50:30;4.60;;;2.10;;
31091;SDS011;67728;53.122;12.776;2023-07-20T22:52:00;4.05;;;2.50;;
31091;SDS011;67728;53.122;12.776;2023-07-20T22:53:32;5.60;;;3.05;;
31091;SDS011;67728;53.122;12.776;2023-07-20T22:55:03;5.30;;;3.00;;
